sensor_id;sensor_type;location;lat;lon;timestamp;pressure;altitude;pressure_sealevel;temperature;humidity
42603;BME280;28233;55.748;48.752;2023-11-21T00:00:16;98343.81;;;-3.26;100.00
42603;BME280;28233;55.748;48.752;2023-11-21T00:02:19;98337.88;;;-3.28;100.00
42603;BME280;28233;55.748;48.752;2023-11-21T00:04:22;98344.84;;;-3.27;100.00
42603;BME280;28233;55.748;48.752;2023-11-21T00:06:25;98345.97;;;-3.23;100.00
42603;BME280;28233;55.748;48.752;2023-11-21T00:08:28;98348.88;;;-3.30;100.00
42603;BME280;28233;55.748;48.752;2023-11-21T00:10:32;98343.00;;;-3.27;100.00
42603;BME280;28233;55.748;48.752;2023-11-21T00:12:35;98337.91;;;-3.23;100.00
42603;BME280;28233;55.748;48.752;2023-11-21T00:14:39;98338.72;;;-3.23;100.00
42603;BME280;28233;55.748;48.752;2023-11-21T00:16:42;98333.06;;;-3.26;100.00
42603;BME280;28233;55.748;48.752;2023-11-21T00:18:45;98325.56;;;-3.24;100.00
42603;BME280;28233;55.748;48.752;2023-11-21T00:20:49;98326.63;;;-3.20;100.00
42603;BME280;28233;55.748;48.752;2023-11-21T00:22:52;98320.97;;;-3.24;100.00
42603;BME280;28233;55.748;48.752;2023-11-21T00:24:55;98317.22;;;-3.17;100.00
42603;BME280;28233;55.748;48.752;2023-11-21T00:26:58;98305.97;;;-3.14;100.00
42603;BME280;28233;55.748;48.752;2023-11-21T00:29:01;98308.38;;;-3.18;100.00
42603;BME280;28233;55.748;48.752;2023-11-21T00:31:04;98303.53;;;-3.21;100.00
42603;BME280;28233;55.748;48.752;2023-11-21T00:33:07;98302.44;;;-3.20;100.00
42603;BME280;28233;55.748;48.752;2023-11-21T00:35:11;98296.28;;;-3.21;100.00
42603;BME280;28233;55.748;48.752;2023-11-21T00:37:14;98297.06;;;-3.20;100.00
42603;BME280;28233;55.748;48.752;2023-11-21T00:39:17;98297.06;;;-3.20;100.00
42603;BME280;28233;55.748;48.752;2023-11-21T00:41:20;98299.75;;;-3.20;100.00
42603;BME280;28233;55.748;48.752;2023-11-21T00:43:23;98293.34;;;-3.19;100.00
42603;BME280;28233;55.748;48.752;2023-11-21T00:45:27;98293.06;;;-3.17;100.00
42603;BME280;28233;55.748;48.752;2023-11-21T00:47:30;98287.97;;;-3.14;100.00
42603;BME280;28233;55.748;48.752;2023-11-21T00:49:33;98283.41;;;-3.13;100.00
42603;BME280;28233;55.748;48.752;2023-11-21T00:51:36;98275.09;;;-3.17;100.00
42603;BME280;28233;55.748;48.752;2023-11-21T00:53:39;98265.38;;;-3.18;100.00
42603;BME280;28233;55.748;48.752;2023-11-21T00:55:42;98260.00;;;-3.18;100.00
42603;BME280;28233;55.748;48.752;2023-11-21T00:57:45;98259.19;;;-3.24;100.00
42603;BME280;28233;55.748;48.752;2023-11-21T00:59:48;98255.44;;;-3.23;100.00
42603;BME280;28233;55.748;48.752;2023-11-21T01:01:51;98258.94;;;-3.22;100.00
42603;BME280;28233;55.748;48.752;2023-11-21T01:03:54;98254.38;;;-3.16;100.00
42603;BME280;28233;55.748;48.752;2023-11-21T01:05:57;98253.31;;;-3.15;100.00
42603;BME280;28233;55.748;48.752;2023-11-21T01:08:00;98259.50;;;-3.15;100.00
42603;BME280;28233;55.748;48.752;2023-11-21T01:10:04;98260.56;;;-3.16;100.00
42603;BME280;28233;55.748;48.752;2023-11-21T01:12:10;98260.56;;;-3.16;100.00
42603;BME280;28233;55.748;48.752;2023-11-21T01:14:14;98267.28;;;-3.13;100.00
42603;BME280;28233;55.748;48.752;2023-11-21T01:16:17;98259.22;;;-3.13;100.00
42603;BME280;28233;55.748;48.752;2023-11-21T01:18:20;98250.13;;;-3.12;100.00
42603;BME280;28233;55.748;48.752;2023-11-21T01:20:23;98238.03;;;-3.10;100.00
42603;BME280;28233;55.748;48.752;2023-11-21T01:22:26;98231.31;;;-3.12;100.00
42603;BME280;28233;55.748;48.752;2023-11-21T01:24:29;98240.16;;;-3.12;100.00
42603;BME280;28233;55.748;48.752;2023-11-21T01:26:33;98240.97;;;-3.11;100.00
42603;BME280;28233;55.748;48.752;2023-11-21T01:28:36;98237.75;;;-3.08;100.00
42603;BME280;28233;55.748;48.752;2023-11-21T01:30:40;98234.78;;;-3.12;100.00
42603;BME280;28233;55.748;48.752;2023-11-21T01:32:43;98237.47;;;-3.12;100.00
42603;BME280;28233;55.748;48.752;2023-11-21T01:34:47;98221.91;;;-3.10;100.00
42603;BME280;28233;55.748;48.752;2023-11-21T01:36:50;98230.50;;;-3.08;100.00
42603;BME280;28233;55.748;48.752;2023-11-21T01:38:53;98228.34;;;-3.06;100.00
42603;BME280;28233;55.748;48.752;2023-11-21T01:40:57;98228.09;;;-3.09;100.00
42603;BME280;28233;55.748;48.752;2023-11-21T01:43:03;98226.19;;;-3.09;100.00
42603;BME280;28233;55.748;48.752;2023-11-21T01:45:06;98222.47;;;-3.08;100.00
42603;BME280;28233;55.748;48.752;2023-11-21T01:47:10;98221.38;;;-3.07;100.00
42603;BME280;28233;55.748;48.752;2023-11-21T01:49:13;98237.25;;;-3.05;100.00
42603;BME280;28233;55.748;48.752;2023-11-21T01:51:17;98234.28;;;-3.04;100.00
42603;BME280;28233;55.748;48.752;2023-11-21T01:53:21;98232.66;;;-3.05;100.00
42603;BME280;28233;55.748;48.752;2023-11-21T01:55:24;98231.31;;;-3.02;100.00
42603;BME280;28233;55.748;48.752;2023-11-21T01:57:30;98229.19;;;-3.00;100.00
42603;BME280;28233;55.748;48.752;2023-11-21T01:59:41;98240.47;;;-3.03;100.00
42603;BME280;28233;55.748;48.752;2023-11-21T02:01:44;98238.31;;;-3.01;100.00
42603;BME280;28233;55.748;48.752;2023-11-21T02:03:49;98233.72;;;-3.06;100.00
42603;BME280;28233;55.748;48.752;2023-11-21T02:05:53;98222.16;;;-3.06;100.00
42603;BME280;28233;55.748;48.752;2023-11-21T02:07:56;98228.63;;;-3.02;100.00
42603;BME280;28233;55.748;48.752;2023-11-21T02:09:59;98220.84;;;-3.04;100.00
42603;BME280;28233;55.748;48.752;2023-11-21T02:12:04;98216.53;;;-3.05;100.00
42603;BME280;28233;55.748;48.752;2023-11-21T02:14:07;98214.94;;;-3.01;100.00
42603;BME280;28233;55.748;48.752;2023-11-21T02:16:12;98213.06;;;-3.00;100.00
42603;BME280;28233;55.748;48.752;2023-11-21T02:18:16;98213.88;;;-3.00;100.00
42603;BME280;28233;55.748;48.752;2023-11-21T02:20:21;98210.38;;;-2.95;100.00
42603;BME280;28233;55.748;48.752;2023-11-21T02:22:28;98217.91;;;-2.97;100.00
42603;BME280;28233;55.748;48.752;2023-11-21T02:24:33;98224.63;;;-3.00;100.00
42603;BME280;28233;55.748;48.752;2023-11-21T02:26:36;98216.53;;;-3.00;100.00
42603;BME280;28233;55.748;48.752;2023-11-21T02:28:40;98216.00;;;-2.97;100.00
42603;BME280;28233;55.748;48.752;2023-11-21T02:30:43;98212.53;;;-2.92;100.00
42603;BME280;28233;55.748;48.752;2023-11-21T02:32:46;98212.81;;;-2.93;100.00
42603;BME280;28233;55.748;48.752;2023-11-21T02:34:53;98208.78;;;-2.91;100.00
42603;BME280;28233;55.748;48.752;2023-11-21T02:37:05;98203.41;;;-2.91;100.00
42603;BME280;28233;55.748;48.752;2023-11-21T02:39:09;98207.69;;;-2.90;100.00
42603;BME280;28233;55.748;48.752;2023-11-21T02:41:13;98211.72;;;-2.92;100.00
42603;BME280;28233;55.748;48.752;2023-11-21T02:43:16;98204.47;;;-2.97;100.00
42603;BME280;28233;55.748;48.752;2023-11-21T02:45:20;98207.16;;;-2.92;100.00
42603;BME280;28233;55.748;48.752;2023-11-21T02:47:24;98206.09;;;-2.91;100.00
42603;BME280;28233;55.748;48.752;2023-11-21T02:49:27;98198.84;;;-2.90;100.00
42603;BME280;28233;55.748;48.752;2023-11-21T02:51:31;98194.00;;;-2.83;100.00
42603;BME280;28233;55.748;48.752;2023-11-21T02:53:34;98197.50;;;-2.83;100.00
42603;BME280;28233;55.748;48.752;2023-11-21T02:55:37;98191.84;;;-2.81;100.00
42603;BME280;28233;55.748;48.752;2023-11-21T02:57:40;98194.00;;;-2.83;100.00
42603;BME280;28233;55.748;48.752;2023-11-21T02:59:43;98188.38;;;-2.82;100.00
42603;BME280;28233;55.748;48.752;2023-11-21T03:01:45;98199.13;;;-2.82;100.00
42603;BME280;28233;55.748;48.752;2023-11-21T03:03:49;98191.06;;;-2.82;100.00
42603;BME280;28233;55.748;48.752;2023-11-21T03:05:53;98202.31;;;-2.85;100.00
42603;BME280;28233;55.748;48.752;2023-11-21T03:07:56;98194.00;;;-2.83;100.00
42603;BME280;28233;55.748;48.752;2023-11-21T03:09:59;98196.16;;;-2.80;100.00
42603;BME280;28233;55.748;48.752;2023-11-21T03:12:05;98200.72;;;-2.81;100.00
42603;BME280;28233;55.748;48.752;2023-11-21T03:14:08;98203.69;;;-2.77;100.00
42603;BME280;28233;55.748;48.752;2023-11-21T03:16:11;98198.31;;;-2.77;100.00
42603;BME280;28233;55.748;48.752;2023-11-21T03:18:15;98195.91;;;-2.79;100.00
42603;BME280;28233;55.748;48.752;2023-11-21T03:20:18;98206.09;;;-2.76;100.00
42603;BME280;28233;55.748;48.752;2023-11-21T03:22:21;98205.03;;;-2.74;100.00
42603;BME280;28233;55.748;48.752;2023-11-21T03:24:24;98205.03;;;-2.74;100.00
42603;BME280;28233;55.748;48.752;2023-11-21T03:26:28;98196.69;;;-2.78;100.00
42603;BME280;28233;55.748;48.752;2023-11-21T03:28:32;98197.25;;;-2.76;100.00
42603;BME280;28233;55.748;48.752;2023-11-21T03:30:35;98192.94;;;-2.77;100.00
42603;BME280;28233;55.748;48.752;2023-11-21T03:32:38;98191.88;;;-2.76;100.00
42603;BME280;28233;55.748;48.752;2023-11-21T03:35:07;98184.88;;;-2.77;100.00
42603;BME280;28233;55.748;48.752;2023-11-21T03:37:10;98184.88;;;-2.77;100.00
42603;BME280;28233;55.748;48.752;2023-11-21T03:39:13;98192.16;;;-2.72;100.00
42603;BME280;28233;55.748;48.752;2023-11-21T03:41:16;98182.75;;;-2.75;100.00
42603;BME280;28233;55.748;48.752;2023-11-21T03:43:19;98180.84;;;-2.74;100.00
42603;BME280;28233;55.748;48.752;2023-11-21T03:45:22;98176.03;;;-2.72;100.00
42603;BME280;28233;55.748;48.752;2023-11-21T03:47:27;98166.88;;;-2.71;100.00
42603;BME280;28233;55.748;48.752;2023-11-21T03:49:31;98172.25;;;-2.71;100.00
42603;BME280;28233;55.748;48.752;2023-11-21T03:51:34;98173.31;;;-2.67;100.00
42603;BME280;28233;55.748;48.752;2023-11-21T03:53:37;98167.16;;;-2.63;100.00
42603;BME280;28233;55.748;48.752;2023-11-21T03:55:39;98176.00;;;-2.62;100.00
42603;BME280;28233;55.748;48.752;2023-11-21T03:57:42;98167.41;;;-2.59;100.00
42603;BME280;28233;55.748;48.752;2023-11-21T03:59:46;98169.28;;;-2.60;100.00
42603;BME280;28233;55.748;48.752;2023-11-21T04:01:49;98166.06;;;-2.62;100.00
42603;BME280;28233;55.748;48.752;2023-11-21T04:03:52;98163.38;;;-2.62;100.00
42603;BME280;28233;55.748;48.752;2023-11-21T04:05:55;98162.84;;;-2.59;100.00
42603;BME280;28233;55.748;48.752;2023-11-21T04:07:58;98158.81;;;-2.56;100.00
42603;BME280;28233;55.748;48.752;2023-11-21T04:10:01;98155.31;;;-2.51;100.00
42603;BME280;28233;55.748;48.752;2023-11-21T04:12:05;98160.16;;;-2.53;100.00
42603;BME280;28233;55.748;48.752;2023-11-21T04:14:09;98158.78;;;-2.61;100.00
42603;BME280;28233;55.748;48.752;2023-11-21T04:16:12;98163.91;;;-2.60;100.00
42603;BME280;28233;55.748;48.752;2023-11-21T04:18:15;98165.53;;;-2.59;100.00
42603;BME280;28233;55.748;48.752;2023-11-21T04:20:18;98164.47;;;-2.63;100.00
42603;BME280;28233;55.748;48.752;2023-11-21T04:22:21;98166.06;;;-2.62;100.00
42603;BME280;28233;55.748;48.752;2023-11-21T04:24:24;98165.53;;;-2.59;100.00
42603;BME280;28233;55.748;48.752;2023-11-21T04:26:27;98161.22;;;-2.60;100.00
42603;BME280;28233;55.748;48.752;2023-11-21T04:28:30;98161.50;;;-2.56;100.00
42603;BME280;28233;55.748;48.752;2023-11-21T04:30:33;98166.34;;;-2.53;100.00
42603;BME280;28233;55.748;48.752;2023-11-21T04:32:36;98161.50;;;-2.56;100.00
42603;BME280;28233;55.748;48.752;2023-11-21T04:34:39;98165.53;;;-2.53;100.00
42603;BME280;28233;55.748;48.752;2023-11-21T04:36:43;98164.44;;;-2.52;100.00
42603;BME280;28233;55.748;48.752;2023-11-21T04:38:46;98164.44;;;-2.52;100.00
42603;BME280;28233;55.748;48.752;2023-11-21T04:40:49;98164.69;;;-2.54;100.00
42603;BME280;28233;55.748;48.752;2023-11-21T04:42:52;98171.72;;;-2.53;100.00
42603;BME280;28233;55.748;48.752;2023-11-21T04:44:55;98159.88;;;-2.57;100.00
42603;BME280;28233;55.748;48.752;2023-11-21T04:46:58;98164.44;;;-2.52;100.00
42603;BME280;28233;55.748;48.752;2023-11-21T04:49:01;98164.72;;;-2.49;100.00
42603;BME280;28233;55.748;48.752;2023-11-21T04:51:04;98159.34;;;-2.49;100.00
42603;BME280;28233;55.748;48.752;2023-11-21T04:53:07;98158.53;;;-2.49;100.00
42603;BME280;28233;55.748;48.752;2023-11-21T04:55:10;98173.84;;;-2.45;100.00
42603;BME280;28233;55.748;48.752;2023-11-21T04:57:13;98167.13;;;-2.42;100.00
42603;BME280;28233;55.748;48.752;2023-11-21T04:59:16;98165.50;;;-2.43;100.00
42603;BME280;28233;55.748;48.752;2023-11-21T05:01:19;98167.66;;;-2.40;100.00
42603;BME280;28233;55.748;48.752;2023-11-21T05:03:23;98164.44;;;-2.37;100.00
42603;BME280;28233;55.748;48.752;2023-11-21T05:05:27;98160.13;;;-2.38;100.00
42603;BME280;28233;55.748;48.752;2023-11-21T05:07:29;98166.06;;;-2.36;100.00
42603;BME280;28233;55.748;48.752;2023-11-21T05:09:34;98162.31;;;-2.35;100.00
42603;BME280;28233;55.748;48.752;2023-11-21T05:11:48;98163.34;;;-2.36;100.00
42603;BME280;28233;55.748;48.752;2023-11-21T05:13:52;98168.75;;;-2.36;100.00
42603;BME280;28233;55.748;48.752;2023-11-21T05:15:55;98169.56;;;-2.30;100.00
42603;BME280;28233;55.748;48.752;2023-11-21T05:18:02;98163.09;;;-2.29;100.00
42603;BME280;28233;55.748;48.752;2023-11-21T05:20:06;98149.91;;;-2.31;100.00
42603;BME280;28233;55.748;48.752;2023-11-21T05:22:12;98146.94;;;-2.29;100.00
42603;BME280;28233;55.748;48.752;2023-11-21T05:24:15;98149.09;;;-2.26;100.00
42603;BME280;28233;55.748;48.752;2023-11-21T05:26:18;98152.31;;;-2.24;100.00
42603;BME280;28233;55.748;48.752;2023-11-21T05:28:21;98151.75;;;-2.21;100.00
42603;BME280;28233;55.748;48.752;2023-11-21T05:30:24;98144.22;;;-2.19;100.00
42603;BME280;28233;55.748;48.752;2023-11-21T05:32:27;98147.47;;;-2.17;100.00
42603;BME280;28233;55.748;48.752;2023-11-21T05:34:30;98161.44;;;-2.15;100.00
42603;BME280;28233;55.748;48.752;2023-11-21T05:36:33;98158.50;;;-2.14;100.00
42603;BME280;28233;55.748;48.752;2023-11-21T05:38:36;98152.56;;;-2.16;100.00
42603;BME280;28233;55.748;48.752;2023-11-21T05:40:39;98154.72;;;-2.13;100.00
42603;BME280;28233;55.748;48.752;2023-11-21T05:42:44;98159.28;;;-2.13;100.00
42603;BME280;28233;55.748;48.752;2023-11-21T05:44:47;98152.03;;;-2.13;100.00
42603;BME280;28233;55.748;48.752;2023-11-21T05:46:50;98157.16;;;-2.11;100.00
42603;BME280;28233;55.748;48.752;2023-11-21T05:48:53;98152.84;;;-2.07;100.00
42603;BME280;28233;55.748;48.752;2023-11-21T05:50:56;98157.38;;;-2.02;100.00
42603;BME280;28233;55.748;48.752;2023-11-21T05:52:59;98158.75;;;-2.00;100.00
42603;BME280;28233;55.748;48.752;2023-11-21T05:55:03;98143.94;;;-1.97;100.00
42603;BME280;28233;55.748;48.752;2023-11-21T05:57:10;98148.50;;;-1.93;100.00
42603;BME280;28233;55.748;48.752;2023-11-21T05:59:12;98139.06;;;-1.90;100.00
42603;BME280;28233;55.748;48.752;2023-11-21T06:01:15;98132.03;;;-1.86;100.00
42603;BME280;28233;55.748;48.752;2023-11-21T06:03:18;98130.13;;;-1.80;100.00
42603;BME280;28233;55.748;48.752;2023-11-21T06:05:23;98137.66;;;-1.77;100.00
42603;BME280;28233;55.748;48.752;2023-11-21T06:07:27;98139.78;;;-1.74;100.00
42603;BME280;28233;55.748;48.752;2023-11-21T06:09:35;98139.53;;;-1.73;100.00
42603;BME280;28233;55.748;48.752;2023-11-21T06:11:38;98139.25;;;-1.71;100.00
42603;BME280;28233;55.748;48.752;2023-11-21T06:13:40;98136.84;;;-1.73;100.00
42603;BME280;28233;55.748;48.752;2023-11-21T06:15:44;98137.38;;;-1.71;100.00
42603;BME280;28233;55.748;48.752;2023-11-21T06:17:47;98140.31;;;-1.72;100.00
42603;BME280;28233;55.748;48.752;2023-11-21T06:19:56;98126.31;;;-1.69;100.00
42603;BME280;28233;55.748;48.752;2023-11-21T06:21:59;98133.56;;;-1.70;100.00
42603;BME280;28233;55.748;48.752;2023-11-21T06:24:02;98124.44;;;-1.68;100.00
42603;BME280;28233;55.748;48.752;2023-11-21T06:26:05;98115.25;;;-1.67;100.00
42603;BME280;28233;55.748;48.752;2023-11-21T06:28:08;98131.16;;;-1.66;100.00
42603;BME280;28233;55.748;48.752;2023-11-21T06:30:12;98127.09;;;-1.63;100.00
42603;BME280;28233;55.748;48.752;2023-11-21T06:32:17;98117.13;;;-1.63;100.00
42603;BME280;28233;55.748;48.752;2023-11-21T06:34:21;98120.34;;;-1.61;100.00
42603;BME280;28233;55.748;48.752;2023-11-21T06:36:24;98126.00;;;-1.57;99.48
42603;BME280;28233;55.748;48.752;2023-11-21T06:38:27;98124.38;;;-1.58;99.75
42603;BME280;28233;55.748;48.752;2023-11-21T06:40:32;98119.00;;;-1.58;100.00
42603;BME280;28233;55.748;48.752;2023-11-21T06:42:36;98118.47;;;-1.55;99.82
42603;BME280;28233;55.748;48.752;2023-11-21T06:44:41;98120.59;;;-1.52;99.65
42603;BME280;28233;55.748;48.752;2023-11-21T06:46:44;98107.13;;;-1.52;99.98
42603;BME280;28233;55.748;48.752;2023-11-21T06:48:47;98111.41;;;-1.51;99.95
42603;BME280;28233;55.748;48.752;2023-11-21T06:50:52;98115.75;;;-1.50;99.66
42603;BME280;28233;55.748;48.752;2023-11-21T06:52:55;98111.94;;;-1.49;99.92
42603;BME280;28233;55.748;48.752;2023-11-21T06:54:58;98113.28;;;-1.46;99.89
42603;BME280;28233;55.748;48.752;2023-11-21T06:57:01;98115.72;;;-1.45;99.69
42603;BME280;28233;55.748;48.752;2023-11-21T06:59:05;98121.88;;;-1.44;99.62
42603;BME280;28233;55.748;48.752;2023-11-21T07:01:08;98114.06;;;-1.41;99.84
42603;BME280;28233;55.748;48.752;2023-11-21T07:03:11;98115.66;;;-1.40;99.42
42603;BME280;28233;55.748;48.752;2023-11-21T07:05:14;98126.44;;;-1.40;99.29
42603;BME280;28233;55.748;48.752;2023-11-21T07:07:18;98121.06;;;-1.40;99.51
42603;BME280;28233;55.748;48.752;2023-11-21T07:09:22;98124.03;;;-1.36;99.24
42603;BME280;28233;55.748;48.752;2023-11-21T07:11:25;98125.34;;;-1.34;99.78
42603;BME280;28233;55.748;48.752;2023-11-21T07:13:28;98124.78;;;-1.31;99.17
42603;BME280;28233;55.748;48.752;2023-11-21T07:15:31;98117.50;;;-1.30;99.04
42603;BME280;28233;55.748;48.752;2023-11-21T07:17:35;98115.34;;;-1.28;99.34
42603;BME280;28233;55.748;48.752;2023-11-21T07:19:43;98109.69;;;-1.26;99.35
42603;BME280;28233;55.748;48.752;2023-11-21T07:21:46;98111.03;;;-1.29;99.02
42603;BME280;28233;55.748;48.752;2023-11-21T07:23:49;98113.69;;;-1.24;98.64
42603;BME280;28233;55.748;48.752;2023-11-21T07:25:52;98116.63;;;-1.20;98.72
42603;BME280;28233;55.748;48.752;2023-11-21T07:27:55;98119.59;;;-1.17;99.25
42603;BME280;28233;55.748;48.752;2023-11-21T07:29:58;98120.66;;;-1.13;98.55
42603;BME280;28233;55.748;48.752;2023-11-21T07:32:01;98115.53;;;-1.14;98.63
42603;BME280;28233;55.748;48.752;2023-11-21T07:34:05;98109.28;;;-1.10;98.26
42603;BME280;28233;55.748;48.752;2023-11-21T07:36:08;98116.81;;;-1.07;98.42
42603;BME280;28233;55.748;48.752;2023-11-21T07:38:13;98103.06;;;-1.05;98.25
42603;BME280;28233;55.748;48.752;2023-11-21T07:40:16;98114.34;;;-0.98;97.51
42603;BME280;28233;55.748;48.752;2023-11-21T07:42:20;98112.69;;;-0.94;97.09
42603;BME280;28233;55.748;48.752;2023-11-21T07:44:23;98110.00;;;-0.94;98.14
42603;BME280;28233;55.748;48.752;2023-11-21T07:46:27;98114.25;;;-0.88;98.15
42603;BME280;28233;55.748;48.752;2023-11-21T07:48:33;98107.25;;;-0.89;97.72
42603;BME280;28233;55.748;48.752;2023-11-21T07:50:36;98109.69;;;-0.92;96.92
42603;BME280;28233;55.748;48.752;2023-11-21T07:52:40;98100.25;;;-0.90;97.14
42603;BME280;28233;55.748;48.752;2023-11-21T07:54:43;98106.97;;;-0.87;96.86
42603;BME280;28233;55.748;48.752;2023-11-21T07:56:46;98102.09;;;-0.85;97.03
42603;BME280;28233;55.748;48.752;2023-11-21T07:58:49;98098.06;;;-0.88;96.44
42603;BME280;28233;55.748;48.752;2023-11-21T08:00:55;98107.25;;;-0.89;96.72
42603;BME280;28233;55.748;48.752;2023-11-21T08:02:59;98105.38;;;-0.88;95.97
42603;BME280;28233;55.748;48.752;2023-11-21T08:05:02;98106.16;;;-0.88;96.76
42603;BME280;28233;55.748;48.752;2023-11-21T08:07:05;98096.16;;;-0.82;96.51
42603;BME280;28233;55.748;48.752;2023-11-21T08:09:08;98099.88;;;-0.78;97.05
42603;BME280;28233;55.748;48.752;2023-11-21T08:11:11;98103.41;;;-0.77;96.19
42603;BME280;28233;55.748;48.752;2023-11-21T08:13:14;98099.59;;;-0.76;96.11
42603;BME280;28233;55.748;48.752;2023-11-21T08:15:19;98099.03;;;-0.73;96.49
42603;BME280;28233;55.748;48.752;2023-11-21T08:17:22;98094.97;;;-0.71;96.35
42603;BME280;28233;55.748;48.752;2023-11-21T08:19:26;98097.34;;;-0.64;95.69
42603;BME280;28233;55.748;48.752;2023-11-21T08:21:30;98092.75;;;-0.64;95.54
42603;BME280;28233;55.748;48.752;2023-11-21T08:23:34;98098.97;;;-0.63;95.85
42603;BME280;28233;55.748;48.752;2023-11-21T08:25:37;98095.75;;;-0.65;95.67
42603;BME280;28233;55.748;48.752;2023-11-21T08:27:40;98091.72;;;-0.68;96.11
42603;BME280;28233;55.748;48.752;2023-11-21T08:29:43;98092.53;;;-0.67;95.83
42603;BME280;28233;55.748;48.752;2023-11-21T08:31:46;98088.72;;;-0.66;95.91
42603;BME280;28233;55.748;48.752;2023-11-21T08:33:51;98092.53;;;-0.67;95.57
42603;BME280;28233;55.748;48.752;2023-11-21T08:35:57;98084.69;;;-0.69;95.41
42603;BME280;28233;55.748;48.752;2023-11-21T08:38:00;98090.91;;;-0.68;95.75
42603;BME280;28233;55.748;48.752;2023-11-21T08:40:04;98096.31;;;-0.68;96.34
42603;BME280;28233;55.748;48.752;2023-11-21T08:42:11;98090.91;;;-0.68;95.62
42603;BME280;28233;55.748;48.752;2023-11-21T08:44:14;98082.53;;;-0.67;95.81
42603;BME280;28233;55.748;48.752;2023-11-21T08:46:19;98091.16;;;-0.65;96.19
42603;BME280;28233;55.748;48.752;2023-11-21T08:48:22;98081.41;;;-0.60;96.25
42603;BME280;28233;55.748;48.752;2023-11-21T08:50:25;98085.44;;;-0.58;95.14
42603;BME280;28233;55.748;48.752;2023-11-21T08:52:28;98085.66;;;-0.54;95.26
42603;BME280;28233;55.748;48.752;2023-11-21T08:54:31;98086.69;;;-0.50;95.34
42603;BME280;28233;55.748;48.752;2023-11-21T08:56:34;98082.94;;;-0.49;95.55
42603;BME280;28233;55.748;48.752;2023-11-21T08:58:37;98092.63;;;-0.48;94.00
42603;BME280;28233;55.748;48.752;2023-11-21T09:00:40;98087.81;;;-0.51;94.16
42603;BME280;28233;55.748;48.752;2023-11-21T09:02:44;98085.91;;;-0.51;94.32
42603;BME280;28233;55.748;48.752;2023-11-21T09:04:48;98081.59;;;-0.52;94.46
42603;BME280;28233;55.748;48.752;2023-11-21T09:06:51;98086.16;;;-0.52;94.61
42603;BME280;28233;55.748;48.752;2023-11-21T09:08:54;98087.50;;;-0.50;94.20
42603;BME280;28233;55.748;48.752;2023-11-21T09:10:57;98085.09;;;-0.51;94.25
42603;BME280;28233;55.748;48.752;2023-11-21T09:13:00;98082.94;;;-0.54;93.85
42603;BME280;28233;55.748;48.752;2023-11-21T09:15:06;98089.19;;;-0.59;93.20
42603;BME280;28233;55.748;48.752;2023-11-21T09:17:10;98085.44;;;-0.58;94.24
42603;BME280;28233;55.748;48.752;2023-11-21T09:19:17;98096.22;;;-0.58;93.87
42603;BME280;28233;55.748;48.752;2023-11-21T09:21:20;98098.97;;;-0.63;94.06
42603;BME280;28233;55.748;48.752;2023-11-21T09:23:23;98094.63;;;-0.64;94.55
42603;BME280;28233;55.748;48.752;2023-11-21T09:25:26;98082.25;;;-0.65;93.74
42603;BME280;28233;55.748;48.752;2023-11-21T09:27:31;98077.13;;;-0.67;93.77
42603;BME280;28233;55.748;48.752;2023-11-21T09:29:34;98084.94;;;-0.65;94.47
42603;BME280;28233;55.748;48.752;2023-11-21T09:31:37;98075.28;;;-0.71;94.07
42603;BME280;28233;55.748;48.752;2023-11-21T09:33:43;98068.28;;;-0.72;93.83
42603;BME280;28233;55.748;48.752;2023-11-21T09:35:46;98073.97;;;-0.74;94.26
42603;BME280;28233;55.748;48.752;2023-11-21T09:37:50;98074.44;;;-0.67;93.98
42603;BME280;28233;55.748;48.752;2023-11-21T09:39:55;98063.91;;;-0.63;93.72
42603;BME280;28233;55.748;48.752;2023-11-21T09:42:13;98069.34;;;-0.68;93.55
42603;BME280;28233;55.748;48.752;2023-11-21T09:44:22;98068.56;;;-0.74;93.91
42603;BME280;28233;55.748;48.752;2023-11-21T09:46:30;98063.97;;;-0.73;94.74
42603;BME280;28233;55.748;48.752;2023-11-21T09:48:35;98057.72;;;-0.69;94.08
42603;BME280;28233;55.748;48.752;2023-11-21T09:50:41;98063.66;;;-0.67;94.28
42603;BME280;28233;55.748;48.752;2023-11-21T09:55:07;98059.88;;;-0.66;93.76
42603;BME280;28233;55.748;48.752;2023-11-21T09:57:11;98053.16;;;-0.68;94.12
42603;BME280;28233;55.748;48.752;2023-11-21T09:59:15;98070.13;;;-0.68;93.98
42603;BME280;28233;55.748;48.752;2023-11-21T10:01:19;98064.44;;;-0.66;94.35
42603;BME280;28233;55.748;48.752;2023-11-21T10:03:23;98063.94;;;-0.68;94.71
42603;BME280;28233;55.748;48.752;2023-11-21T10:05:28;98078.03;;;-0.76;93.60
42603;BME280;28233;55.748;48.752;2023-11-21T10:07:35;98067.03;;;-0.85;93.50
42603;BME280;28233;55.748;48.752;2023-11-21T10:09:39;98063.88;;;-0.92;94.07
42603;BME280;28233;55.748;48.752;2023-11-21T10:11:43;98063.34;;;-0.94;94.38
42603;BME280;28233;55.748;48.752;2023-11-21T10:13:49;98063.31;;;-0.89;94.60
42603;BME280;28233;55.748;48.752;2023-11-21T10:15:56;98061.16;;;-0.92;94.12
42603;BME280;28233;55.748;48.752;2023-11-21T10:18:03;98060.94;;;-0.96;94.27
42603;BME280;28233;55.748;48.752;2023-11-21T10:20:07;98061.00;;;-1.01;95.34
42603;BME280;28233;55.748;48.752;2023-11-21T10:22:16;98063.75;;;-1.11;94.77
42603;BME280;28233;55.748;48.752;2023-11-21T10:24:20;98068.06;;;-1.10;94.91
42603;BME280;28233;55.748;48.752;2023-11-21T10:26:23;98065.84;;;-1.03;95.48
42603;BME280;28233;55.748;48.752;2023-11-21T10:28:35;98063.16;;;-1.03;95.94
42603;BME280;28233;55.748;48.752;2023-11-21T10:30:40;98062.59;;;-1.00;94.79
42603;BME280;28233;55.748;48.752;2023-11-21T10:32:43;98063.22;;;-1.13;95.13
42603;BME280;28233;55.748;48.752;2023-11-21T10:34:56;98051.63;;;-1.14;95.63
42603;BME280;28233;55.748;48.752;2023-11-21T10:37:13;98047.56;;;-1.11;95.74
42603;BME280;28233;55.748;48.752;2023-11-21T10:39:20;98045.34;;;-1.04;96.42
42603;BME280;28233;55.748;48.752;2023-11-21T10:41:26;98044.84;;;-1.06;96.05
42603;BME280;28233;55.748;48.752;2023-11-21T10:43:29;98038.38;;;-1.05;95.53